createdAt,value
2022-10-17T00:02:12.223Z,97969.25
2022-10-17T00:07:16.124Z,97937.44
2022-10-17T00:12:18.702Z,97945.41
2022-10-17T00:17:21.262Z,97934.81
2022-10-17T00:22:25.214Z,97885.41
2022-10-17T00:27:28.138Z,97851.88
2022-10-17T00:32:31.092Z,97824.53
2022-10-17T00:37:35.645Z,97768.03
2022-10-17T00:42:38.261Z,97757.47
2022-10-17T00:47:41.061Z,97703.59
2022-10-17T00:52:45.525Z,97676.31
2022-10-17T00:57:48.343Z,97653.31
2022-10-17T01:02:50.951Z,97671.88
2022-10-17T01:07:55.289Z,97709.88
2022-10-17T01:13:04.300Z,97734.56
2022-10-17T01:18:14.530Z,97752.25
2022-10-17T01:23:32.064Z,97476.09
2022-10-17T01:28:49.621Z,97429.53
2022-10-17T01:34:01.568Z,97359.84
2022-10-17T01:39:09.396Z,97269.78
2022-10-17T01:44:14.892Z,97199.13
2022-10-17T01:49:22.967Z,96964.53
2022-10-17T01:54:27.136Z,96944.34
2022-10-17T01:59:34.905Z,96915.09
2022-10-17T02:04:38.898Z,96934.59
2022-10-17T02:09:41.544Z,96837.50
2022-10-17T02:14:55.095Z,96911.59
2022-10-17T02:20:09.206Z,96935.50
2022-10-17T02:25:16.194Z,96979.66
2022-10-17T02:30:24.855Z,97068.78
2022-10-17T02:35:31.831Z,97307.22
2022-10-17T02:40:34.778Z,96971.09
2022-10-17T02:45:38.831Z,96955.22
2022-10-17T02:50:50.405Z,97095.53
2022-10-17T02:55:55.105Z,97392.75
2022-10-17T03:00:57.995Z,96844.09
2022-10-17T03:06:02.019Z,96988.78
2022-10-17T03:11:04.661Z,96915.22
2022-10-17T03:16:09.551Z,97096.88
2022-10-17T03:21:13.621Z,97183.16
2022-10-17T03:26:16.460Z,97427.19
2022-10-17T03:31:19.137Z,98802.50
2022-10-17T03:36:24.346Z,99929.72
2022-10-17T03:41:27.103Z,100493.78
2022-10-17T03:46:30.163Z,101735.13
2022-10-17T03:51:36.756Z,102412.34
2022-10-17T03:56:44.732Z,103079.84
2022-10-17T04:01:50.900Z,103599.44
2022-10-17T04:06:56.034Z,104126.09
2022-10-17T04:11:58.782Z,104914.81
2022-10-17T04:17:01.773Z,105009.28
2022-10-17T04:22:08.404Z,105694.03
2022-10-17T04:27:13.226Z,106467.38
2022-10-17T04:32:19.802Z,107267.94
2022-10-17T04:37:46.617Z,107851.59
2022-10-17T04:42:54.239Z,108598.25
2022-10-17T04:48:01.955Z,108886.16
2022-10-17T04:53:05.962Z,109210.63
2022-10-17T04:58:08.716Z,109436.00
2022-10-17T05:03:11.635Z,109836.78
2022-10-17T05:08:15.715Z,109803.28
2022-10-17T05:13:18.419Z,109477.81
2022-10-17T05:18:21.195Z,109349.22
2022-10-17T05:23:25.412Z,109427.06
2022-10-17T05:28:28.383Z,109782.84
2022-10-17T05:33:35.005Z,109786.75
2022-10-17T05:38:39.166Z,109669.00
2022-10-17T05:43:43.802Z,110310.81
2022-10-17T05:48:48.727Z,110625.47
2022-10-17T05:53:53.880Z,110991.25
2022-10-17T05:59:02.643Z,111167.19
2022-10-17T06:04:21.660Z,111258.13
2022-10-17T06:09:28.598Z,111597.63
2022-10-17T06:14:32.430Z,111582.69
2022-10-17T06:19:38.003Z,111362.69
2022-10-17T06:24:42.268Z,109944.88
2022-10-17T06:29:44.904Z,109657.66
2022-10-17T06:34:47.644Z,109367.16
2022-10-17T06:39:52.595Z,109012.69
2022-10-17T06:44:57.822Z,109249.28
2022-10-17T06:50:17.597Z,109358.91
2022-10-17T06:55:27.991Z,109253.25
2022-10-17T07:00:50.995Z,108680.47
2022-10-17T07:05:54.875Z,108155.78
2022-10-17T07:10:59.643Z,108546.72
2022-10-17T07:16:02.634Z,108217.72
2022-10-17T07:21:08.526Z,108241.59
2022-10-17T07:26:14.489Z,108470.19
2022-10-17T07:31:19.321Z,108067.09
2022-10-17T07:36:22.072Z,107853.16
2022-10-17T07:41:26.738Z,107621.66
2022-10-17T07:46:29.725Z,107474.69
2022-10-17T07:51:32.406Z,107475.34
2022-10-17T07:56:36.648Z,107910.09
2022-10-17T08:01:39.344Z,108254.63
2022-10-17T08:06:41.897Z,108763.59
2022-10-17T08:11:46.279Z,109221.97
2022-10-17T08:16:48.843Z,109864.06
2022-10-17T08:21:52.286Z,110443.56
2022-10-17T08:26:58.124Z,110916.22
2022-10-17T08:32:02.353Z,111065.72
2022-10-17T08:37:05.660Z,112071.41
2022-10-17T08:42:26.342Z,112478.59
2022-10-17T08:47:30.806Z,112319.25
2022-10-17T08:52:37.863Z,113341.16
2022-10-17T08:57:41.794Z,114372.59
2022-10-17T09:02:51.928Z,114866.16
2022-10-17T09:08:03.102Z,115130.50
2022-10-17T09:13:19.530Z,115589.59
2022-10-17T09:18:26.971Z,116329.94
2022-10-17T09:23:32.990Z,117438.81
2022-10-17T09:28:39.005Z,118276.88
2022-10-17T09:33:53.989Z,119011.78
2022-10-17T09:38:58.551Z,119743.47
2022-10-17T09:44:12.882Z,120114.63
2022-10-17T09:49:18.615Z,119023.81
2022-10-17T09:54:23.498Z,114940.94
2022-10-17T09:59:38.535Z,108282.13
2022-10-17T10:05:03.805Z,99229.91
2022-10-17T10:10:09.216Z,97205.59
2022-10-17T10:15:35.353Z,96641.78
2022-10-17T10:20:38.631Z,96360.63
2022-10-17T10:25:53.490Z,96362.25
2022-10-17T10:30:58.878Z,96341.56
2022-10-17T10:36:03.670Z,96340.19
2022-10-17T10:41:07.854Z,96371.50
2022-10-17T10:46:20.493Z,96543.84
2022-10-17T10:51:28.045Z,96687.00
2022-10-17T10:56:34.581Z,96685.38
2022-10-17T11:01:43.493Z,96796.06
2022-10-17T11:06:46.561Z,96949.22
2022-10-17T11:11:53.951Z,97008.22
2022-10-17T11:17:04.016Z,96984.00
2022-10-17T11:22:10.400Z,96971.34
2022-10-17T11:27:12.844Z,96948.59
2022-10-17T11:32:21.774Z,96572.41
2022-10-17T11:37:27.456Z,96411.09
2022-10-17T11:42:33.480Z,96426.44
2022-10-17T11:47:43.442Z,96322.75
2022-10-17T11:52:56.824Z,96207.19
2022-10-17T11:58:13.176Z,96037.22
2022-10-17T12:03:30.402Z,95603.31
2022-10-17T12:08:39.164Z,95449.06
2022-10-17T12:13:49.721Z,95621.44
2022-10-17T12:19:24.744Z,95516.03
2022-10-17T12:24:39.945Z,95377.53
2022-10-17T12:29:42.542Z,95232.03
2022-10-17T12:34:54.121Z,95059.25
2022-10-17T12:39:56.740Z,94800.47
2022-10-17T12:44:59.356Z,94758.00
2022-10-17T12:50:03.315Z,94756.69
2022-10-17T12:55:14.196Z,94802.91
2022-10-17T13:00:21.345Z,94724.00
2022-10-17T13:05:29.631Z,94757.28
2022-10-17T13:10:34.231Z,94738.09
2022-10-17T13:15:37.698Z,94724.75
2022-10-17T13:20:41.605Z,94733.25
2022-10-17T13:25:44.176Z,94729.72
2022-10-17T13:30:49.622Z,94727.25
2022-10-17T13:36:00.364Z,94766.78
2022-10-17T13:41:33.706Z,94830.06
2022-10-17T13:46:39.278Z,94866.50
2022-10-17T13:51:45.775Z,94913.75
2022-10-17T13:56:48.422Z,94923.75
2022-10-17T14:01:52.090Z,94960.56
2022-10-17T14:06:56.254Z,94979.75
2022-10-17T14:12:02.136Z,95063.00
2022-10-17T14:17:14.259Z,95115.16
2022-10-17T14:22:19.487Z,95134.34
2022-10-17T14:27:28.855Z,95139.22
2022-10-17T14:37:44.776Z,95147.84
2022-10-17T14:42:48.218Z,95173.09
2022-10-17T14:47:51.486Z,95165.34
2022-10-17T14:53:03.789Z,95158.91
2022-10-17T14:58:17.555Z,95148.34
2022-10-17T15:03:20.229Z,95176.75
2022-10-17T15:08:25.223Z,95198.25
2022-10-17T15:13:29.661Z,95201.63
2022-10-17T15:18:34.025Z,95272.41
2022-10-17T15:23:37.970Z,95325.84
2022-10-17T15:28:40.595Z,95378.06
2022-10-17T15:33:43.696Z,95431.81
2022-10-17T15:38:47.767Z,95489.63
2022-10-17T15:43:50.458Z,95556.53
2022-10-17T15:48:53.478Z,95607.25
2022-10-17T15:53:57.600Z,95670.09
2022-10-17T15:59:00.261Z,95637.50
2022-10-17T16:04:02.867Z,95603.44
2022-10-17T16:09:06.774Z,95609.31
2022-10-17T16:14:12.691Z,95602.50
2022-10-17T16:19:16.194Z,95599.28
2022-10-17T16:24:20.333Z,95567.91
2022-10-17T16:29:22.963Z,95515.94
2022-10-17T16:34:25.538Z,95405.84
2022-10-17T16:39:29.481Z,95275.88
2022-10-17T16:44:32.080Z,95170.41
2022-10-17T16:49:34.702Z,95079.66
2022-10-17T16:54:38.850Z,95026.44
2022-10-17T16:59:42.482Z,95037.13
2022-10-17T17:04:45.198Z,95124.63
2022-10-17T17:09:49.127Z,95175.44
2022-10-17T17:14:52.084Z,95299.84
2022-10-17T17:19:55.531Z,95456.09
2022-10-17T17:24:59.500Z,95553.09
2022-10-17T17:30:02.124Z,95656.22
2022-10-17T17:35:05.065Z,95778.09
2022-10-17T17:40:10.183Z,95925.50
2022-10-17T17:45:13.235Z,96103.63
2022-10-17T17:50:15.894Z,96305.75
2022-10-17T17:55:19.987Z,96618.72
2022-10-17T18:00:22.573Z,96886.63
2022-10-17T18:05:25.417Z,97026.16
2022-10-17T18:10:30.223Z,97156.63
2022-10-17T18:15:32.904Z,97268.75
2022-10-17T18:20:36.039Z,97321.88
2022-10-17T18:25:40.043Z,97383.34
2022-10-17T18:30:42.624Z,97448.22
2022-10-17T18:35:45.251Z,97599.13
2022-10-17T18:40:50.781Z,97592.38
2022-10-17T18:45:57.372Z,97560.59
2022-10-17T18:50:59.858Z,97476.41
2022-10-17T18:56:03.977Z,97390.66
2022-10-17T19:01:09.353Z,97299.25
2022-10-17T19:06:13.662Z,97223.19
2022-10-17T19:11:19.530Z,97131.00
2022-10-17T19:16:23.705Z,97037.06
2022-10-17T19:21:26.488Z,97011.34
2022-10-17T19:26:32.303Z,97037.19
2022-10-17T19:31:36.400Z,97099.28
2022-10-17T19:36:39.494Z,97095.81
2022-10-17T19:41:44.059Z,97138.31
2022-10-17T19:46:48.895Z,97180.31
2022-10-17T19:51:51.498Z,97155.31
2022-10-17T19:56:55.439Z,97170.53
2022-10-17T20:01:58.106Z,97162.44
2022-10-17T20:07:01.328Z,97188.25
2022-10-17T20:12:05.484Z,97229.50
2022-10-17T20:17:08.078Z,97254.28
2022-10-17T20:22:10.693Z,97291.59
2022-10-17T20:27:14.623Z,97312.13
2022-10-17T20:32:17.230Z,97343.13
2022-10-17T20:37:19.840Z,97407.03
2022-10-17T20:42:23.771Z,97463.09
2022-10-17T20:47:43.689Z,97549.06
2022-10-17T20:52:48.485Z,97599.75
2022-10-17T20:57:54.826Z,97684.25
2022-10-17T21:02:58.990Z,97742.03
2022-10-17T21:08:02.572Z,97781.91
2022-10-17T21:13:06.475Z,97812.94
2022-10-17T21:18:09.043Z,97807.44
2022-10-17T21:23:11.640Z,97826.09
2022-10-17T21:28:15.588Z,97863.38
2022-10-17T21:33:18.180Z,97959.06
2022-10-17T21:38:20.791Z,98075.25
2022-10-17T21:43:24.726Z,98170.03
2022-10-17T21:48:27.398Z,98485.53
2022-10-17T21:53:30.540Z,99459.75
2022-10-17T21:58:34.826Z,101446.19
2022-10-17T22:03:42.597Z,102577.38
2022-10-17T22:08:48.486Z,103815.06
2022-10-17T22:13:55.900Z,104712.72
2022-10-17T22:19:03.127Z,105372.22
2022-10-17T22:24:11.165Z,105715.72
2022-10-17T22:29:15.307Z,106209.25
2022-10-17T22:34:18.556Z,106580.38
2022-10-17T22:39:21.435Z,106827.09
2022-10-17T22:44:28.014Z,107087.88
2022-10-17T22:49:30.934Z,107337.75
2022-10-17T22:54:33.709Z,107518.78
2022-10-17T22:59:37.757Z,107772.69
2022-10-17T23:04:41.237Z,107978.44
2022-10-17T23:09:44.108Z,108068.84
2022-10-17T23:14:48.112Z,108162.41
2022-10-17T23:19:52.951Z,108048.56
2022-10-17T23:24:58.135Z,108089.09
2022-10-17T23:30:02.146Z,108067.56
2022-10-17T23:35:04.926Z,108094.00
2022-10-17T23:40:09.068Z,108303.00
2022-10-17T23:45:13.420Z,108480.84
2022-10-17T23:50:16.342Z,108497.34
2022-10-17T23:55:18.962Z,108518.44
